sensor_id;sensor_type;location;lat;lon;timestamp;P1;durP1;ratioP1;P2;durP2;ratioP2
13291;SDS011;6714;53.056;8.690;2023-10-08T00:00:47;4.83;;;4.33;;
13291;SDS011;6714;53.056;8.690;2023-10-08T00:03:31;2.83;;;2.43;;
13291;SDS011;6714;53.056;8.690;2023-10-08T00:06:14;2.47;;;2.27;;
13291;SDS011;6714;53.056;8.690;2023-10-08T00:08:56;3.43;;;3.13;;
13291;SDS011;6714;53.056;8.690;2023-10-08T00:11:42;4.23;;;3.60;;
13291;SDS011;6714;53.056;8.690;2023-10-08T00:14:31;2.07;;;1.87;;
13291;SDS011;6714;53.056;8.690;2023-10-08T00:17:13;2.63;;;2.10;;
13291;SDS011;6714;53.056;8.690;2023-10-08T00:19:55;2.47;;;1.80;;
13291;SDS011;6714;53.056;8.690;2023-10-08T00:22:40;1.73;;;1.60;;
13291;SDS011;6714;53.056;8.690;2023-10-08T00:25:23;1.60;;;1.50;;
13291;SDS011;6714;53.056;8.690;2023-10-08T00:28:06;1.40;;;1.30;;
13291;SDS011;6714;53.056;8.690;2023-10-08T00:30:51;1.60;;;1.50;;
13291;SDS011;6714;53.056;8.690;2023-10-08T00:33:35;2.13;;;1.80;;
13291;SDS011;6714;53.056;8.690;2023-10-08T00:36:17;1.93;;;1.37;;
13291;SDS011;6714;53.056;8.690;2023-10-08T00:39:00;2.13;;;1.37;;
13291;SDS011;6714;53.056;8.690;2023-10-08T00:41:49;2.40;;;1.40;;
13291;SDS011;6714;53.056;8.690;2023-10-08T00:44:36;2.23;;;1.30;;
13291;SDS011;6714;53.056;8.690;2023-10-08T00:47:27;1.43;;;1.33;;
13291;SDS011;6714;53.056;8.690;2023-10-08T00:50:14;1.30;;;1.10;;
13291;SDS011;6714;53.056;8.690;2023-10-08T00:53:01;1.67;;;1.10;;
13291;SDS011;6714;53.056;8.690;2023-10-08T00:55:50;1.57;;;1.20;;
13291;SDS011;6714;53.056;8.690;2023-10-08T00:58:34;1.57;;;1.27;;
13291;SDS011;6714;53.056;8.690;2023-10-08T01:01:18;1.80;;;1.23;;
13291;SDS011;6714;53.056;8.690;2023-10-08T01:04:01;1.63;;;1.20;;
13291;SDS011;6714;53.056;8.690;2023-10-08T01:06:52;2.90;;;1.13;;
13291;SDS011;6714;53.056;8.690;2023-10-08T01:09:39;2.73;;;1.40;;
13291;SDS011;6714;53.056;8.690;2023-10-08T01:12:23;2.63;;;1.33;;
13291;SDS011;6714;53.056;8.690;2023-10-08T01:15:08;2.20;;;1.27;;
13291;SDS011;6714;53.056;8.690;2023-10-08T01:17:59;1.10;;;1.10;;
13291;SDS011;6714;53.056;8.690;2023-10-08T01:20:41;2.90;;;1.50;;
13291;SDS011;6714;53.056;8.690;2023-10-08T01:23:33;2.80;;;1.50;;
13291;SDS011;6714;53.056;8.690;2023-10-08T01:26:19;1.63;;;1.40;;
13291;SDS011;6714;53.056;8.690;2023-10-08T01:29:03;1.90;;;1.20;;
13291;SDS011;6714;53.056;8.690;2023-10-08T01:31:47;3.40;;;1.57;;
13291;SDS011;6714;53.056;8.690;2023-10-08T01:34:30;3.17;;;1.40;;
13291;SDS011;6714;53.056;8.690;2023-10-08T01:37:16;1.53;;;1.20;;
13291;SDS011;6714;53.056;8.690;2023-10-08T01:40:00;4.60;;;1.83;;
13291;SDS011;6714;53.056;8.690;2023-10-08T01:42:46;1.77;;;1.40;;
13291;SDS011;6714;53.056;8.690;2023-10-08T01:45:35;1.50;;;1.40;;
13291;SDS011;6714;53.056;8.690;2023-10-08T01:48:20;1.43;;;1.27;;
13291;SDS011;6714;53.056;8.690;2023-10-08T01:51:11;1.40;;;1.30;;
13291;SDS011;6714;53.056;8.690;2023-10-08T01:54:04;1.63;;;1.50;;
13291;SDS011;6714;53.056;8.690;2023-10-08T01:56:52;2.17;;;1.60;;
13291;SDS011;6714;53.056;8.690;2023-10-08T01:59:34;1.87;;;1.60;;
13291;SDS011;6714;53.056;8.690;2023-10-08T02:02:17;2.10;;;1.90;;
13291;SDS011;6714;53.056;8.690;2023-10-08T02:04:59;2.03;;;1.67;;
13291;SDS011;6714;53.056;8.690;2023-10-08T02:07:42;2.40;;;2.00;;
13291;SDS011;6714;53.056;8.690;2023-10-08T02:10:24;2.50;;;1.87;;
13291;SDS011;6714;53.056;8.690;2023-10-08T02:13:08;2.83;;;2.47;;
13291;SDS011;6714;53.056;8.690;2023-10-08T02:15:50;2.20;;;2.00;;
13291;SDS011;6714;53.056;8.690;2023-10-08T02:18:33;2.43;;;1.90;;
13291;SDS011;6714;53.056;8.690;2023-10-08T02:21:15;2.20;;;2.10;;
13291;SDS011;6714;53.056;8.690;2023-10-08T02:23:58;2.10;;;1.90;;
13291;SDS011;6714;53.056;8.690;2023-10-08T02:26:40;3.17;;;2.57;;
13291;SDS011;6714;53.056;8.690;2023-10-08T02:29:25;2.33;;;2.13;;
13291;SDS011;6714;53.056;8.690;2023-10-08T02:32:07;3.40;;;3.10;;
13291;SDS011;6714;53.056;8.690;2023-10-08T02:34:50;3.23;;;2.63;;
13291;SDS011;6714;53.056;8.690;2023-10-08T02:37:32;2.57;;;2.37;;
13291;SDS011;6714;53.056;8.690;2023-10-08T02:40:15;4.30;;;3.00;;
13291;SDS011;6714;53.056;8.690;2023-10-08T02:43:05;2.93;;;2.63;;
13291;SDS011;6714;53.056;8.690;2023-10-08T02:45:50;3.33;;;2.80;;
13291;SDS011;6714;53.056;8.690;2023-10-08T02:48:33;3.20;;;2.23;;
13291;SDS011;6714;53.056;8.690;2023-10-08T02:51:15;3.50;;;2.70;;
13291;SDS011;6714;53.056;8.690;2023-10-08T02:54:00;3.97;;;3.13;;
13291;SDS011;6714;53.056;8.690;2023-10-08T02:56:46;3.43;;;3.00;;
13291;SDS011;6714;53.056;8.690;2023-10-08T02:59:31;5.17;;;3.30;;
13291;SDS011;6714;53.056;8.690;2023-10-08T03:02:21;5.33;;;3.47;;
13291;SDS011;6714;53.056;8.690;2023-10-08T03:05:03;4.00;;;2.90;;
13291;SDS011;6714;53.056;8.690;2023-10-08T03:07:48;3.57;;;3.20;;
13291;SDS011;6714;53.056;8.690;2023-10-08T03:10:31;5.50;;;3.30;;
13291;SDS011;6714;53.056;8.690;2023-10-08T03:13:14;4.10;;;2.83;;
13291;SDS011;6714;53.056;8.690;2023-10-08T03:15:56;3.37;;;2.57;;
13291;SDS011;6714;53.056;8.690;2023-10-08T03:18:49;2.90;;;2.70;;
13291;SDS011;6714;53.056;8.690;2023-10-08T03:21:31;2.63;;;2.30;;
13291;SDS011;6714;53.056;8.690;2023-10-08T03:24:31;2.83;;;2.63;;
13291;SDS011;6714;53.056;8.690;2023-10-08T03:27:18;3.77;;;2.57;;
13291;SDS011;6714;53.056;8.690;2023-10-08T03:30:05;4.93;;;3.00;;
13291;SDS011;6714;53.056;8.690;2023-10-08T03:32:55;2.77;;;2.20;;
13291;SDS011;6714;53.056;8.690;2023-10-08T03:35:38;2.70;;;2.00;;
13291;SDS011;6714;53.056;8.690;2023-10-08T03:38:23;6.30;;;3.00;;
13291;SDS011;6714;53.056;8.690;2023-10-08T03:41:21;3.07;;;2.10;;
13291;SDS011;6714;53.056;8.690;2023-10-08T03:44:08;4.97;;;2.97;;
13291;SDS011;6714;53.056;8.690;2023-10-08T03:46:53;2.83;;;2.50;;
13291;SDS011;6714;53.056;8.690;2023-10-08T03:49:37;3.70;;;2.83;;
13291;SDS011;6714;53.056;8.690;2023-10-08T03:52:27;3.57;;;2.40;;
13291;SDS011;6714;53.056;8.690;2023-10-08T03:55:10;5.17;;;2.43;;
13291;SDS011;6714;53.056;8.690;2023-10-08T03:58:02;4.20;;;2.70;;
13291;SDS011;6714;53.056;8.690;2023-10-08T04:00:44;3.50;;;2.80;;
13291;SDS011;6714;53.056;8.690;2023-10-08T04:03:26;2.43;;;1.53;;
13291;SDS011;6714;53.056;8.690;2023-10-08T04:06:26;3.27;;;2.63;;
13291;SDS011;6714;53.056;8.690;2023-10-08T04:09:19;2.07;;;1.80;;
13291;SDS011;6714;53.056;8.690;2023-10-08T04:12:11;2.40;;;1.50;;
13291;SDS011;6714;53.056;8.690;2023-10-08T04:14:58;2.83;;;2.53;;
13291;SDS011;6714;53.056;8.690;2023-10-08T04:17:40;4.77;;;2.40;;
13291;SDS011;6714;53.056;8.690;2023-10-08T04:20:24;3.00;;;2.47;;
13291;SDS011;6714;53.056;8.690;2023-10-08T04:23:18;3.47;;;2.70;;
13291;SDS011;6714;53.056;8.690;2023-10-08T04:26:02;3.83;;;2.80;;
13291;SDS011;6714;53.056;8.690;2023-10-08T04:28:46;2.93;;;2.63;;
13291;SDS011;6714;53.056;8.690;2023-10-08T04:31:29;3.10;;;2.43;;
13291;SDS011;6714;53.056;8.690;2023-10-08T04:34:17;4.20;;;3.13;;
13291;SDS011;6714;53.056;8.690;2023-10-08T04:37:02;3.70;;;2.67;;
13291;SDS011;6714;53.056;8.690;2023-10-08T04:39:52;4.03;;;2.30;;
13291;SDS011;6714;53.056;8.690;2023-10-08T04:42:41;4.17;;;2.97;;
13291;SDS011;6714;53.056;8.690;2023-10-08T04:45:25;2.40;;;2.20;;
13291;SDS011;6714;53.056;8.690;2023-10-08T04:48:14;4.10;;;2.80;;
13291;SDS011;6714;53.056;8.690;2023-10-08T04:51:00;6.07;;;2.90;;
13291;SDS011;6714;53.056;8.690;2023-10-08T04:53:42;2.03;;;1.83;;
13291;SDS011;6714;53.056;8.690;2023-10-08T04:56:27;2.57;;;2.03;;
13291;SDS011;6714;53.056;8.690;2023-10-08T04:59:11;6.63;;;2.83;;
13291;SDS011;6714;53.056;8.690;2023-10-08T05:01:54;4.53;;;3.00;;
13291;SDS011;6714;53.056;8.690;2023-10-08T05:04:52;3.37;;;2.43;;
13291;SDS011;6714;53.056;8.690;2023-10-08T05:07:58;4.03;;;3.33;;
13291;SDS011;6714;53.056;8.690;2023-10-08T05:10:57;3.30;;;2.60;;
13291;SDS011;6714;53.056;8.690;2023-10-08T05:13:54;2.70;;;2.47;;
13291;SDS011;6714;53.056;8.690;2023-10-08T05:16:47;13.40;;;9.03;;
13291;SDS011;6714;53.056;8.690;2023-10-08T05:19:41;5.30;;;4.40;;
13291;SDS011;6714;53.056;8.690;2023-10-08T05:22:28;7.13;;;6.43;;
13291;SDS011;6714;53.056;8.690;2023-10-08T05:25:35;8.73;;;7.93;;
13291;SDS011;6714;53.056;8.690;2023-10-08T05:28:38;4.97;;;4.30;;
13291;SDS011;6714;53.056;8.690;2023-10-08T05:31:41;4.57;;;3.30;;
13291;SDS011;6714;53.056;8.690;2023-10-08T05:34:28;4.57;;;3.77;;
13291;SDS011;6714;53.056;8.690;2023-10-08T05:37:22;3.73;;;2.57;;
13291;SDS011;6714;53.056;8.690;2023-10-08T05:40:17;3.47;;;2.20;;
13291;SDS011;6714;53.056;8.690;2023-10-08T05:43:22;2.93;;;2.43;;
13291;SDS011;6714;53.056;8.690;2023-10-08T05:46:24;3.20;;;2.53;;
13291;SDS011;6714;53.056;8.690;2023-10-08T05:49:24;5.27;;;2.60;;
13291;SDS011;6714;53.056;8.690;2023-10-08T05:52:35;2.80;;;2.00;;
13291;SDS011;6714;53.056;8.690;2023-10-08T05:55:31;6.03;;;2.60;;
13291;SDS011;6714;53.056;8.690;2023-10-08T05:58:27;4.63;;;2.50;;
13291;SDS011;6714;53.056;8.690;2023-10-08T06:01:26;2.67;;;2.00;;
13291;SDS011;6714;53.056;8.690;2023-10-08T06:04:20;2.73;;;2.30;;
13291;SDS011;6714;53.056;8.690;2023-10-08T06:07:11;2.80;;;2.40;;
13291;SDS011;6714;53.056;8.690;2023-10-08T06:10:02;3.37;;;2.40;;
13291;SDS011;6714;53.056;8.690;2023-10-08T06:12:53;4.70;;;2.17;;
13291;SDS011;6714;53.056;8.690;2023-10-08T06:15:42;2.53;;;2.23;;
13291;SDS011;6714;53.056;8.690;2023-10-08T06:18:32;4.33;;;2.30;;
13291;SDS011;6714;53.056;8.690;2023-10-08T06:21:13;4.10;;;2.30;;
13291;SDS011;6714;53.056;8.690;2023-10-08T06:23:55;5.30;;;2.10;;
13291;SDS011;6714;53.056;8.690;2023-10-08T06:26:39;2.67;;;2.30;;
13291;SDS011;6714;53.056;8.690;2023-10-08T06:29:25;3.07;;;2.20;;
13291;SDS011;6714;53.056;8.690;2023-10-08T06:32:10;4.77;;;2.87;;
13291;SDS011;6714;53.056;8.690;2023-10-08T06:34:52;3.87;;;2.57;;
13291;SDS011;6714;53.056;8.690;2023-10-08T06:37:36;3.37;;;2.60;;
13291;SDS011;6714;53.056;8.690;2023-10-08T06:40:18;6.83;;;3.07;;
13291;SDS011;6714;53.056;8.690;2023-10-08T06:43:20;3.30;;;2.00;;
13291;SDS011;6714;53.056;8.690;2023-10-08T06:46:04;3.83;;;2.00;;
13291;SDS011;6714;53.056;8.690;2023-10-08T06:48:48;3.37;;;1.90;;
13291;SDS011;6714;53.056;8.690;2023-10-08T06:51:30;4.77;;;2.00;;
13291;SDS011;6714;53.056;8.690;2023-10-08T06:54:13;2.53;;;1.90;;
13291;SDS011;6714;53.056;8.690;2023-10-08T06:56:57;1.87;;;1.73;;
13291;SDS011;6714;53.056;8.690;2023-10-08T06:59:41;2.50;;;1.77;;
13291;SDS011;6714;53.056;8.690;2023-10-08T07:02:23;4.47;;;2.00;;
13291;SDS011;6714;53.056;8.690;2023-10-08T07:05:07;3.57;;;1.67;;
13291;SDS011;6714;53.056;8.690;2023-10-08T07:07:49;2.47;;;1.87;;
13291;SDS011;6714;53.056;8.690;2023-10-08T07:10:33;3.90;;;1.87;;
13291;SDS011;6714;53.056;8.690;2023-10-08T07:13:15;3.20;;;1.77;;
13291;SDS011;6714;53.056;8.690;2023-10-08T07:16:01;2.73;;;2.00;;
13291;SDS011;6714;53.056;8.690;2023-10-08T07:18:44;3.30;;;2.20;;
13291;SDS011;6714;53.056;8.690;2023-10-08T07:21:31;3.47;;;2.00;;
13291;SDS011;6714;53.056;8.690;2023-10-08T07:24:24;1.67;;;1.57;;
13291;SDS011;6714;53.056;8.690;2023-10-08T07:27:10;3.13;;;1.50;;
13291;SDS011;6714;53.056;8.690;2023-10-08T07:29:53;1.83;;;1.40;;
13291;SDS011;6714;53.056;8.690;2023-10-08T07:32:37;1.90;;;1.70;;
13291;SDS011;6714;53.056;8.690;2023-10-08T07:35:20;2.87;;;1.70;;
13291;SDS011;6714;53.056;8.690;2023-10-08T07:38:09;3.20;;;1.70;;
13291;SDS011;6714;53.056;8.690;2023-10-08T07:40:52;2.17;;;1.63;;
13291;SDS011;6714;53.056;8.690;2023-10-08T07:43:36;3.63;;;1.83;;
13291;SDS011;6714;53.056;8.690;2023-10-08T07:46:21;2.53;;;1.70;;
13291;SDS011;6714;53.056;8.690;2023-10-08T07:49:07;2.47;;;1.47;;
13291;SDS011;6714;53.056;8.690;2023-10-08T07:51:55;1.57;;;1.37;;
13291;SDS011;6714;53.056;8.690;2023-10-08T07:54:38;5.30;;;2.00;;
13291;SDS011;6714;53.056;8.690;2023-10-08T07:57:21;4.33;;;1.80;;
13291;SDS011;6714;53.056;8.690;2023-10-08T08:00:07;2.83;;;1.80;;
13291;SDS011;6714;53.056;8.690;2023-10-08T08:03:04;3.93;;;1.63;;
13291;SDS011;6714;53.056;8.690;2023-10-08T08:05:49;4.03;;;1.53;;
13291;SDS011;6714;53.056;8.690;2023-10-08T08:08:34;4.13;;;1.90;;
13291;SDS011;6714;53.056;8.690;2023-10-08T08:11:17;4.57;;;1.80;;
13291;SDS011;6714;53.056;8.690;2023-10-08T08:14:06;3.60;;;1.40;;
13291;SDS011;6714;53.056;8.690;2023-10-08T08:16:49;3.63;;;1.87;;
13291;SDS011;6714;53.056;8.690;2023-10-08T08:19:31;6.20;;;2.73;;
13291;SDS011;6714;53.056;8.690;2023-10-08T08:22:16;4.77;;;2.50;;
13291;SDS011;6714;53.056;8.690;2023-10-08T08:25:01;3.33;;;1.70;;
13291;SDS011;6714;53.056;8.690;2023-10-08T08:27:55;4.27;;;1.30;;
13291;SDS011;6714;53.056;8.690;2023-10-08T08:30:39;3.87;;;2.07;;
13291;SDS011;6714;53.056;8.690;2023-10-08T08:33:23;3.70;;;1.93;;
13291;SDS011;6714;53.056;8.690;2023-10-08T08:36:09;3.33;;;1.63;;
13291;SDS011;6714;53.056;8.690;2023-10-08T08:38:53;2.17;;;1.23;;
13291;SDS011;6714;53.056;8.690;2023-10-08T08:41:36;4.50;;;1.73;;
13291;SDS011;6714;53.056;8.690;2023-10-08T08:44:19;4.83;;;1.70;;
13291;SDS011;6714;53.056;8.690;2023-10-08T08:47:03;3.07;;;1.60;;
13291;SDS011;6714;53.056;8.690;2023-10-08T08:49:46;4.07;;;1.60;;
13291;SDS011;6714;53.056;8.690;2023-10-08T08:52:30;3.33;;;1.80;;
13291;SDS011;6714;53.056;8.690;2023-10-08T08:55:15;4.87;;;1.90;;
13291;SDS011;6714;53.056;8.690;2023-10-08T08:57:57;2.73;;;1.77;;
13291;SDS011;6714;53.056;8.690;2023-10-08T09:00:43;2.53;;;1.30;;
13291;SDS011;6714;53.056;8.690;2023-10-08T09:03:29;2.63;;;1.40;;
13291;SDS011;6714;53.056;8.690;2023-10-08T09:06:11;3.57;;;1.50;;
13291;SDS011;6714;53.056;8.690;2023-10-08T09:08:54;4.73;;;1.77;;
13291;SDS011;6714;53.056;8.690;2023-10-08T09:11:53;3.97;;;1.50;;
13291;SDS011;6714;53.056;8.690;2023-10-08T09:14:37;3.50;;;1.50;;
13291;SDS011;6714;53.056;8.690;2023-10-08T09:17:20;4.13;;;1.47;;
13291;SDS011;6714;53.056;8.690;2023-10-08T09:20:04;4.23;;;1.63;;
13291;SDS011;6714;53.056;8.690;2023-10-08T09:22:47;3.23;;;1.20;;
13291;SDS011;6714;53.056;8.690;2023-10-08T09:25:48;4.63;;;1.73;;
13291;SDS011;6714;53.056;8.690;2023-10-08T09:28:34;3.33;;;1.77;;
13291;SDS011;6714;53.056;8.690;2023-10-08T09:31:22;7.63;;;2.03;;
13291;SDS011;6714;53.056;8.690;2023-10-08T09:34:04;2.43;;;1.30;;
13291;SDS011;6714;53.056;8.690;2023-10-08T09:36:47;5.00;;;1.50;;
13291;SDS011;6714;53.056;8.690;2023-10-08T09:39:29;4.80;;;1.80;;
13291;SDS011;6714;53.056;8.690;2023-10-08T09:42:14;4.87;;;1.73;;
13291;SDS011;6714;53.056;8.690;2023-10-08T09:45:00;3.43;;;1.37;;
13291;SDS011;6714;53.056;8.690;2023-10-08T09:47:47;3.50;;;1.30;;
13291;SDS011;6714;53.056;8.690;2023-10-08T09:50:35;4.60;;;1.50;;
13291;SDS011;6714;53.056;8.690;2023-10-08T09:53:21;2.20;;;1.27;;
13291;SDS011;6714;53.056;8.690;2023-10-08T09:56:10;3.10;;;1.20;;
13291;SDS011;6714;53.056;8.690;2023-10-08T09:58:58;5.10;;;1.43;;
13291;SDS011;6714;53.056;8.690;2023-10-08T10:01:42;3.07;;;1.37;;
13291;SDS011;6714;53.056;8.690;2023-10-08T10:04:25;3.53;;;1.57;;
13291;SDS011;6714;53.056;8.690;2023-10-08T10:07:12;3.83;;;1.50;;
13291;SDS011;6714;53.056;8.690;2023-10-08T10:09:56;4.33;;;1.20;;
13291;SDS011;6714;53.056;8.690;2023-10-08T10:12:39;4.73;;;1.43;;
13291;SDS011;6714;53.056;8.690;2023-10-08T10:15:23;5.57;;;1.73;;
13291;SDS011;6714;53.056;8.690;2023-10-08T10:18:12;1.43;;;1.20;;
13291;SDS011;6714;53.056;8.690;2023-10-08T10:20:57;5.90;;;1.80;;
13291;SDS011;6714;53.056;8.690;2023-10-08T10:23:43;1.20;;;1.10;;
13291;SDS011;6714;53.056;8.690;2023-10-08T10:26:27;5.10;;;1.63;;
13291;SDS011;6714;53.056;8.690;2023-10-08T10:29:21;3.47;;;1.33;;
13291;SDS011;6714;53.056;8.690;2023-10-08T10:32:06;4.83;;;1.30;;
13291;SDS011;6714;53.056;8.690;2023-10-08T10:34:52;3.63;;;1.50;;
13291;SDS011;6714;53.056;8.690;2023-10-08T10:37:34;4.13;;;1.30;;
13291;SDS011;6714;53.056;8.690;2023-10-08T10:40:22;2.33;;;1.30;;
13291;SDS011;6714;53.056;8.690;2023-10-08T10:43:09;3.33;;;1.30;;
13291;SDS011;6714;53.056;8.690;2023-10-08T10:45:55;2.57;;;1.23;;
13291;SDS011;6714;53.056;8.690;2023-10-08T10:48:38;2.30;;;1.13;;
13291;SDS011;6714;53.056;8.690;2023-10-08T10:51:20;3.57;;;1.50;;
13291;SDS011;6714;53.056;8.690;2023-10-08T10:54:03;2.60;;;1.30;;
13291;SDS011;6714;53.056;8.690;2023-10-08T10:56:50;3.73;;;1.50;;
13291;SDS011;6714;53.056;8.690;2023-10-08T10:59:43;3.43;;;1.30;;
13291;SDS011;6714;53.056;8.690;2023-10-08T11:02:33;2.70;;;1.17;;
13291;SDS011;6714;53.056;8.690;2023-10-08T11:05:19;2.73;;;1.20;;
13291;SDS011;6714;53.056;8.690;2023-10-08T11:08:10;2.07;;;1.30;;
13291;SDS011;6714;53.056;8.690;2023-10-08T11:10:55;3.70;;;1.40;;
13291;SDS011;6714;53.056;8.690;2023-10-08T11:13:39;4.40;;;2.00;;
13291;SDS011;6714;53.056;8.690;2023-10-08T11:16:23;3.73;;;1.87;;
13291;SDS011;6714;53.056;8.690;2023-10-08T11:19:07;2.30;;;1.60;;
13291;SDS011;6714;53.056;8.690;2023-10-08T11:21:50;3.63;;;1.83;;
13291;SDS011;6714;53.056;8.690;2023-10-08T11:24:35;3.70;;;1.50;;
13291;SDS011;6714;53.056;8.690;2023-10-08T11:27:22;7.40;;;1.60;;
13291;SDS011;6714;53.056;8.690;2023-10-08T11:30:09;3.97;;;1.43;;
13291;SDS011;6714;53.056;8.690;2023-10-08T11:32:52;3.13;;;1.40;;
13291;SDS011;6714;53.056;8.690;2023-10-08T11:35:34;3.37;;;1.40;;
13291;SDS011;6714;53.056;8.690;2023-10-08T11:38:27;1.90;;;1.43;;
13291;SDS011;6714;53.056;8.690;2023-10-08T11:41:20;4.00;;;1.53;;
13291;SDS011;6714;53.056;8.690;2023-10-08T11:44:03;1.47;;;1.37;;
13291;SDS011;6714;53.056;8.690;2023-10-08T11:46:46;3.33;;;1.70;;
13291;SDS011;6714;53.056;8.690;2023-10-08T11:49:31;2.33;;;1.53;;
13291;SDS011;6714;53.056;8.690;2023-10-08T11:52:16;4.83;;;1.73;;
13291;SDS011;6714;53.056;8.690;2023-10-08T11:55:01;2.90;;;1.60;;
13291;SDS011;6714;53.056;8.690;2023-10-08T11:57:47;1.53;;;1.40;;
13291;SDS011;6714;53.056;8.690;2023-10-08T12:00:31;3.00;;;1.50;;
13291;SDS011;6714;53.056;8.690;2023-10-08T12:03:16;2.77;;;1.30;;
13291;SDS011;6714;53.056;8.690;2023-10-08T12:05:59;3.67;;;1.60;;
13291;SDS011;6714;53.056;8.690;2023-10-08T12:08:42;2.37;;;1.40;;
13291;SDS011;6714;53.056;8.690;2023-10-08T12:11:26;2.93;;;1.57;;
13291;SDS011;6714;53.056;8.690;2023-10-08T12:14:14;1.47;;;1.20;;
13291;SDS011;6714;53.056;8.690;2023-10-08T12:16:56;1.70;;;1.60;;
13291;SDS011;6714;53.056;8.690;2023-10-08T12:19:40;2.07;;;1.40;;
13291;SDS011;6714;53.056;8.690;2023-10-08T12:22:23;3.93;;;1.37;;
13291;SDS011;6714;53.056;8.690;2023-10-08T12:25:07;1.10;;;1.10;;
13291;SDS011;6714;53.056;8.690;2023-10-08T12:27:49;1.77;;;1.40;;
13291;SDS011;6714;53.056;8.690;2023-10-08T12:30:34;2.37;;;1.40;;
13291;SDS011;6714;53.056;8.690;2023-10-08T12:33:21;3.47;;;1.60;;
13291;SDS011;6714;53.056;8.690;2023-10-08T12:36:04;1.93;;;1.20;;
13291;SDS011;6714;53.056;8.690;2023-10-08T12:38:51;1.80;;;1.10;;
13291;SDS011;6714;53.056;8.690;2023-10-08T12:41:37;1.50;;;1.33;;
13291;SDS011;6714;53.056;8.690;2023-10-08T12:44:19;2.53;;;1.23;;
13291;SDS011;6714;53.056;8.690;2023-10-08T12:47:05;1.57;;;1.10;;
13291;SDS011;6714;53.056;8.690;2023-10-08T12:49:48;1.80;;;1.27;;
13291;SDS011;6714;53.056;8.690;2023-10-08T12:52:35;1.90;;;1.30;;
13291;SDS011;6714;53.056;8.690;2023-10-08T12:55:23;1.60;;;1.40;;
13291;SDS011;6714;53.056;8.690;2023-10-08T12:58:05;1.60;;;1.20;;
13291;SDS011;6714;53.056;8.690;2023-10-08T13:00:50;1.20;;;1.03;;
13291;SDS011;6714;53.056;8.690;2023-10-08T13:03:38;2.83;;;1.40;;
13291;SDS011;6714;53.056;8.690;2023-10-08T13:06:22;1.33;;;1.23;;
13291;SDS011;6714;53.056;8.690;2023-10-08T13:09:08;2.37;;;1.40;;
13291;SDS011;6714;53.056;8.690;2023-10-08T13:11:52;2.90;;;1.43;;
13291;SDS011;6714;53.056;8.690;2023-10-08T13:14:35;1.67;;;1.30;;
13291;SDS011;6714;53.056;8.690;2023-10-08T13:17:17;2.37;;;1.20;;
13291;SDS011;6714;53.056;8.690;2023-10-08T13:20:01;1.73;;;1.30;;
13291;SDS011;6714;53.056;8.690;2023-10-08T13:22:44;2.23;;;1.30;;
13291;SDS011;6714;53.056;8.690;2023-10-08T13:25:26;1.47;;;1.30;;
13291;SDS011;6714;53.056;8.690;2023-10-08T13:28:10;1.50;;;1.40;;
13291;SDS011;6714;53.056;8.690;2023-10-08T13:30:53;3.37;;;1.50;;
13291;SDS011;6714;53.056;8.690;2023-10-08T13:33:35;1.70;;;1.20;;
13291;SDS011;6714;53.056;8.690;2023-10-08T13:36:21;1.90;;;1.60;;
13291;SDS011;6714;53.056;8.690;2023-10-08T13:39:04;2.30;;;1.47;;
13291;SDS011;6714;53.056;8.690;2023-10-08T13:41:49;2.30;;;1.40;;
13291;SDS011;6714;53.056;8.690;2023-10-08T13:44:32;1.40;;;1.27;;
13291;SDS011;6714;53.056;8.690;2023-10-08T13:47:16;2.90;;;1.13;;
13291;SDS011;6714;53.056;8.690;2023-10-08T13:49:59;1.27;;;1.13;;
13291;SDS011;6714;53.056;8.690;2023-10-08T13:52:51;1.10;;;1.10;;
13291;SDS011;6714;53.056;8.690;2023-10-08T13:55:34;1.63;;;1.20;;
13291;SDS011;6714;53.056;8.690;2023-10-08T13:58:16;1.50;;;1.27;;
13291;SDS011;6714;53.056;8.690;2023-10-08T14:00:59;1.20;;;1.10;;
13291;SDS011;6714;53.056;8.690;2023-10-08T14:03:41;2.43;;;1.30;;
13291;SDS011;6714;53.056;8.690;2023-10-08T14:06:24;1.20;;;1.10;;
13291;SDS011;6714;53.056;8.690;2023-10-08T14:09:08;1.17;;;1.07;;
13291;SDS011;6714;53.056;8.690;2023-10-08T14:11:52;1.37;;;1.27;;
13291;SDS011;6714;53.056;8.690;2023-10-08T14:14:36;1.43;;;1.30;;
13291;SDS011;6714;53.056;8.690;2023-10-08T14:17:23;1.40;;;1.10;;
13291;SDS011;6714;53.056;8.690;2023-10-08T14:20:32;1.53;;;1.30;;
13291;SDS011;6714;53.056;8.690;2023-10-08T14:23:14;2.57;;;1.60;;
13291;SDS011;6714;53.056;8.690;2023-10-08T14:25:57;2.43;;;1.20;;
13291;SDS011;6714;53.056;8.690;2023-10-08T14:28:43;1.43;;;1.20;;
13291;SDS011;6714;53.056;8.690;2023-10-08T14:31:31;1.70;;;1.30;;
13291;SDS011;6714;53.056;8.690;2023-10-08T14:34:14;2.17;;;1.40;;
13291;SDS011;6714;53.056;8.690;2023-10-08T14:37:23;1.70;;;1.40;;
13291;SDS011;6714;53.056;8.690;2023-10-08T14:40:23;1.73;;;1.10;;
13291;SDS011;6714;53.056;8.690;2023-10-08T14:43:22;1.93;;;1.20;;
13291;SDS011;6714;53.056;8.690;2023-10-08T14:46:04;2.43;;;1.20;;
13291;SDS011;6714;53.056;8.690;2023-10-08T14:48:49;2.00;;;1.30;;
13291;SDS011;6714;53.056;8.690;2023-10-08T14:51:32;1.00;;;1.00;;
13291;SDS011;6714;53.056;8.690;2023-10-08T14:54:15;1.30;;;1.20;;
13291;SDS011;6714;53.056;8.690;2023-10-08T14:56:58;1.30;;;1.13;;
13291;SDS011;6714;53.056;8.690;2023-10-08T14:59:41;1.77;;;1.30;;
13291;SDS011;6714;53.056;8.690;2023-10-08T15:02:23;1.10;;;1.00;;
13291;SDS011;6714;53.056;8.690;2023-10-08T15:05:09;1.30;;;1.20;;
13291;SDS011;6714;53.056;8.690;2023-10-08T15:07:51;1.27;;;1.17;;
13291;SDS011;6714;53.056;8.690;2023-10-08T15:10:35;1.33;;;1.23;;
13291;SDS011;6714;53.056;8.690;2023-10-08T15:13:17;2.60;;;1.27;;
13291;SDS011;6714;53.056;8.690;2023-10-08T15:16:00;1.20;;;1.10;;
13291;SDS011;6714;53.056;8.690;2023-10-08T15:18:44;1.53;;;1.30;;
13291;SDS011;6714;53.056;8.690;2023-10-08T15:21:26;1.20;;;1.10;;
13291;SDS011;6714;53.056;8.690;2023-10-08T15:24:10;1.67;;;1.27;;
13291;SDS011;6714;53.056;8.690;2023-10-08T15:26:56;1.27;;;1.10;;
13291;SDS011;6714;53.056;8.690;2023-10-08T15:29:40;1.50;;;1.40;;
13291;SDS011;6714;53.056;8.690;2023-10-08T15:32:22;1.57;;;1.47;;
13291;SDS011;6714;53.056;8.690;2023-10-08T15:35:06;1.60;;;1.47;;
13291;SDS011;6714;53.056;8.690;2023-10-08T15:37:49;1.67;;;1.47;;
13291;SDS011;6714;53.056;8.690;2023-10-08T15:40:32;2.57;;;1.33;;
13291;SDS011;6714;53.056;8.690;2023-10-08T15:43:16;1.60;;;1.30;;
13291;SDS011;6714;53.056;8.690;2023-10-08T15:45:58;2.17;;;1.23;;
13291;SDS011;6714;53.056;8.690;2023-10-08T15:48:42;1.10;;;1.00;;
13291;SDS011;6714;53.056;8.690;2023-10-08T15:51:24;1.77;;;1.30;;
13291;SDS011;6714;53.056;8.690;2023-10-08T15:54:09;1.83;;;1.30;;
13291;SDS011;6714;53.056;8.690;2023-10-08T15:56:52;1.27;;;1.13;;
13291;SDS011;6714;53.056;8.690;2023-10-08T15:59:36;1.90;;;1.40;;
13291;SDS011;6714;53.056;8.690;2023-10-08T16:02:18;1.83;;;1.10;;
13291;SDS011;6714;53.056;8.690;2023-10-08T16:05:01;1.63;;;1.30;;
13291;SDS011;6714;53.056;8.690;2023-10-08T16:07:43;1.63;;;1.50;;
13291;SDS011;6714;53.056;8.690;2023-10-08T16:10:26;1.77;;;1.27;;
13291;SDS011;6714;53.056;8.690;2023-10-08T16:13:09;1.30;;;1.17;;
13291;SDS011;6714;53.056;8.690;2023-10-08T16:15:53;1.33;;;1.20;;
13291;SDS011;6714;53.056;8.690;2023-10-08T16:18:35;2.60;;;1.50;;
13291;SDS011;6714;53.056;8.690;2023-10-08T16:21:18;2.13;;;1.40;;
13291;SDS011;6714;53.056;8.690;2023-10-08T16:24:01;1.60;;;1.50;;
13291;SDS011;6714;53.056;8.690;2023-10-08T16:26:44;2.27;;;1.30;;
13291;SDS011;6714;53.056;8.690;2023-10-08T16:29:26;3.10;;;1.40;;
13291;SDS011;6714;53.056;8.690;2023-10-08T16:32:12;1.77;;;1.10;;
13291;SDS011;6714;53.056;8.690;2023-10-08T16:34:54;3.03;;;1.50;;
13291;SDS011;6714;53.056;8.690;2023-10-08T16:37:37;2.67;;;1.30;;
13291;SDS011;6714;53.056;8.690;2023-10-08T16:40:20;2.03;;;1.30;;
13291;SDS011;6714;53.056;8.690;2023-10-08T16:43:02;1.20;;;1.10;;
13291;SDS011;6714;53.056;8.690;2023-10-08T16:45:45;2.20;;;1.50;;
13291;SDS011;6714;53.056;8.690;2023-10-08T16:48:29;1.57;;;1.37;;
13291;SDS011;6714;53.056;8.690;2023-10-08T16:51:12;3.07;;;1.50;;
13291;SDS011;6714;53.056;8.690;2023-10-08T16:53:55;3.80;;;1.30;;